ADDS TAF Board (Experimental) INFO Settings
IDs: Format: Expanded Condensed

KPHL - Philadelphia Intl, PA, US

Issued at 1738 UTC 01 Jul 2016
Updated at 1848 UTC 01 Jul 2016
Time1812Z 01/19Z 01/20Z 01/21Z 01/22Z 01/23Z 02/00Z 02/01Z 02/02Z 02/03Z 02/04Z 02/05Z 02/06Z 02/07Z
Type OBS PRVL PRVL PRVL PRVL
  [TEMP]  
PRVL
  [TEMP]  
PRVL PRVL PRVL PRVL PRVL PRVL PRVL PRVL
VIS 10 >6 >6 >6 >6
  [3]  
>6
  [3]  
>6 >6 >6 >6 >6 >6 >6 >6
CIG 90 270 -- -- --
  [40]  
--
  [40]  
-- -- -- -- -- -- -- --
Cover BKN BKN SCT SCT SCT
  [BKN]  
SCT
  [BKN]  
SCT SCT SCT FEW FEW FEW FEW FEW
FltCat VFR VFR VFR VFR VFR
  [MVFR]  
VFR
  [MVFR]  
VFR VFR VFR VFR VFR VFR VFR VFR
WX -- -- -- -- --
  [TSRA]  
--
  [TSRA]  
-- -- -- -- -- -- -- --
WDir 210 200 210 210 210
[290]
210
[290]
210 210 210 300 300 300 300 300
WSpd 11 7 8 8 8
  [15]  
8
  [15]  
8 8 8 6 6 6 6 6
WGst -- -- 18 18 18
  [30]  
18
  [30]  
18 18 18 -- -- -- -- --
R08/26
XWnd -8 -6 -6 -6 -6 -6 -6 -6 -6 4 4 4 4 4
XGst -- -- -13 -13 -13 -13 -13 -13 -13 -- -- -- -- --
HWnd -8 -4 -6 -6 -6 -6 -6 -6 -6 -4 -4 -4 -4 -4
HGst -- -- -13 -13 -13 -13 -13 -13 -13 -- -- -- -- --
R09/27
XWnd -8 -6 -6 -6 -6 -6 -6 -6 -6 4 4 4 4 4
XGst -- -- -13 -13 -13 -13 -13 -13 -13 -- -- -- -- --
HWnd -8 -4 -6 -6 -6 -6 -6 -6 -6 -4 -4 -4 -4 -4
HGst -- -- -13 -13 -13 -13 -13 -13 -13 -- -- -- -- --
R17/35
XWnd -9 -5 -6 -6 -6 -6 -6 -6 -6 -4 -4 -4 -4 -4
XGst -- -- -14 -14 -14 -14 -14 -14 -14 -- -- -- -- --
HWnd 7 5 5 5 5 5 5 5 5 -5 -5 -5 -5 -5
HGst -- -- 11 11 11 11 11 11 11 -- -- -- -- --

Raw TAF
KPHL 011738Z 0118/0224 20007KT P6SM SCT030 BKN270
  TEMPO 0118/0119 25020G35KT 3SM TSRA BKN040CB
  FM012000 21008G18KT P6SM SCT050
  TEMPO 0122/0124 29015G30KT 3SM TSRA BKN040CB
  FM020300 30006KT P6SM FEW040
  FM021300 31008G18KT P6SM SCT250


Raw METAR
KPHL 011812Z 21011KT 10SM SCT035 BKN090 BKN270 30/21 A2990 RMK AO2 TSE12 OCNL LTGIC DSNT N CB DSNT N MOV NE T03000206 VISNO W
KPHL 011754Z COR 20009KT 10SM TS SCT035CB BKN090 BKN270 29/21 A2991 RMK AO2 TSB33 SLP128 FRQ LTGICCG VC NW TS VC NW MOV NE TCU OHD-N 10294 20228 57015 T02940206 VISNO W
KPHL 011733Z 21009KT 10SM TS SCT032CB BKN090 BKN280 29/20 A2992 RMK AO2 TSB33 OCNL LTGICCG VC W TS VC W MOV NE T02940200 VISNO W $
KPHL 011654Z 20007KT 10SM SCT032 BKN270 29/21 A2993 RMK AO2 SLP133 T02890211 PNO $
KPHL 011554Z 16006KT 10SM SCT026 BKN280 28/21 A2994 RMK AO2 SLP137 T02780211 $

METAR Board
Radar Display
Forecast Discussion

TAF Board Legend

Potential Impact
Threat None Slight Moderate High
Visibility (sm) ≥5.1 5.1>X≥3 3>X≥1 <1
Ceiling (100 ft) ≥30.1 30.1>X≥10 10>X≥5 <5
Wind Speed (kt) <10 10≤X<20 20≤X<30 ≥30
Wind Gust (kt) <15 15≤X<25 25≤X<35 ≥35
Weather No Wx Reported VCTS,-TS,-FZRA,SN TS,FZRA +TS,+FZRA,+SN